John F Kennedy International Airport
KJFK : rendu visible

Aérodrome :











RETROUVEZ-NOUS SUR...

 
LOGIN :

S'inscrire | Disclaimer

   EN    FR    IT 

 









Légende :    VFR   VFR Marginal   IFR   IFR Intensif   IFR Très Intensif
Visi : 
Plafond : 
>= 8 km
>= 3000ft
5 à 8 km
1000 à 3000 ft
1500m à 5 km
500 à 1000 ft
800 à 1500m
200 à 500 ft
< 800m
< 200 ft
Symboles :   Orages  Brouillard  Fortes neiges  Fortes précipitations  Vent > 20 kt






- Altitude de l'aérodrome : 13 ft
- Code IATA : JFK


KJFK - John F Kennedy International

DERNIER METAR :
  • 300251Z 17016KT 1/2SM R04R/P6000FT BR BKN003 BKN023 OVC150 17/16 A2989 RMK AO2 SFC VIS 6 SLP122 T01670161 58010

METARs EXPIRÉS :
  • 300151Z 19015G21KT 1 1/2SM BKN003 BKN170 BKN250 17/16 A2992 RMK AO2 SFC VIS 10 SLP130 BKN003 V SCT T01670161
  • 300051Z 19012G16KT 10SM BKN004 BKN032 BKN060 BKN180 BKN250 17/17 A2992 RMK AO2 PK WND 18027/0001 SLP132 T01720167

TAF KJFK
Valide du 30 à 02h jusqu'au 31 à 06h UTC


300156Z 3002/3106 18014KT 5SM BR VCSH BKN005 BKN035
FM300300 19011KT 3SM BR BKN003 BKN015
FM301000 23008KT P6SM FEW015 SCT100
FM301200 30010KT P6SM SCT025 SCT100
FM302100 24010KT P6SM SCT060
FM310300 32012G20KT P6SM SCT060
FIR KZNY / Amérique du Nord



MET'MAP, la Météo Aéronautique d'un coup d'oeil ! - Copyright ORBIFLY Décembre 2007 - Disclaimer

ORBIFLY MET'MAP TEAM :

Programmation & Développement : Alexandra Zaïnal
Sur une idée originale de : Baudouin d'Aumeries
Assistance à la programmation : Marc-Olivier Méhu
Soutien technique & logistique : Manuel Goepfert

Contact : metmap@orbifly.com




SOURCES & CREDITS :

   NOAA       Earth
Advisory